createdAt,value
2023-04-02T00:01:39.158Z,99.28
2023-04-02T00:04:16.196Z,99.61
2023-04-02T00:06:46.274Z,100.00
2023-04-02T00:09:15.449Z,98.98
2023-04-02T00:11:44.554Z,97.16
2023-04-02T00:14:24.162Z,97.36
2023-04-02T00:16:52.322Z,98.28
2023-04-02T00:19:28.166Z,96.93
2023-04-02T00:21:57.097Z,96.83
2023-04-02T00:24:23.489Z,97.63
2023-04-02T00:26:52.844Z,96.41
2023-04-02T00:29:19.924Z,96.18
2023-04-02T00:31:52.939Z,96.43
2023-04-02T00:34:27.564Z,96.42
2023-04-02T00:36:54.965Z,95.97
2023-04-02T00:39:27.397Z,96.18
2023-04-02T00:42:04.824Z,95.64
2023-04-02T00:44:34.170Z,96.78
2023-04-02T00:47:18.810Z,96.14
2023-04-02T00:49:46.013Z,95.56
2023-04-02T00:52:18.424Z,95.08
2023-04-02T00:54:50.455Z,96.43
2023-04-02T00:57:25.563Z,96.15
2023-04-02T01:00:19.204Z,95.59
2023-04-02T01:03:16.277Z,95.63
2023-04-02T01:05:45.298Z,96.98
2023-04-02T01:08:31.359Z,97.02
2023-04-02T01:11:52.061Z,96.08
2023-04-02T01:14:56.420Z,96.61
2023-04-02T01:17:42.922Z,96.46
2023-04-02T01:20:43.416Z,95.90
2023-04-02T01:23:25.506Z,95.05
2023-04-02T01:26:03.169Z,95.93
2023-04-02T01:28:56.217Z,94.81
2023-04-02T01:31:23.685Z,95.41
2023-04-02T01:33:50.283Z,94.94
2023-04-02T01:36:45.652Z,94.80
2023-04-02T01:39:35.114Z,94.36
2023-04-02T01:42:07.901Z,95.10
2023-04-02T01:44:53.032Z,95.07
2023-04-02T01:47:25.597Z,94.52
2023-04-02T01:50:23.929Z,93.89
2023-04-02T01:52:55.446Z,93.52
2023-04-02T01:55:31.304Z,92.00
2023-04-02T01:58:00.142Z,92.30
2023-04-02T02:00:28.461Z,91.33
2023-04-02T02:02:56.641Z,91.22
2023-04-02T02:05:23.628Z,90.96
2023-04-02T02:07:52.625Z,90.74
2023-04-02T02:10:26.056Z,90.49
2023-04-02T02:12:52.483Z,89.65
2023-04-02T02:15:22.498Z,89.76
2023-04-02T02:17:49.910Z,89.86
2023-04-02T02:20:17.653Z,90.71
2023-04-02T02:22:47.454Z,89.71
2023-04-02T02:25:24.411Z,89.03
2023-04-02T02:28:10.934Z,89.68
2023-04-02T02:30:48.004Z,89.92
2023-04-02T02:33:21.664Z,90.20
2023-04-02T02:36:04.838Z,89.49
2023-04-02T02:38:35.250Z,90.08
2023-04-02T02:41:36.607Z,90.72
2023-04-02T02:44:12.227Z,90.22
2023-04-02T02:46:54.469Z,90.30
2023-04-02T02:49:47.191Z,90.53
2023-04-02T02:52:17.766Z,90.58
2023-04-02T02:55:04.479Z,90.47
2023-04-02T02:57:50.749Z,90.29
2023-04-02T03:00:19.863Z,89.44
2023-04-02T03:02:47.789Z,89.50
2023-04-02T03:05:22.418Z,90.04
2023-04-02T03:07:54.991Z,89.86
2023-04-02T03:10:37.138Z,90.39
2023-04-02T03:13:12.529Z,90.27
2023-04-02T03:15:53.996Z,90.09
2023-04-02T03:18:36.010Z,90.01
2023-04-02T03:21:26.533Z,90.08
2023-04-02T03:23:59.394Z,90.19
2023-04-02T03:26:41.266Z,90.35
2023-04-02T03:29:19.012Z,90.22
2023-04-02T03:31:52.630Z,90.24
2023-04-02T03:34:32.792Z,90.28
2023-04-02T03:37:24.779Z,90.11
2023-04-02T03:40:00.100Z,90.71
2023-04-02T03:42:30.674Z,91.11
2023-04-02T03:45:04.964Z,91.30
2023-04-02T03:47:37.892Z,90.83
2023-04-02T03:50:13.246Z,89.90
2023-04-02T03:52:40.293Z,90.29
2023-04-02T03:55:21.543Z,90.46
2023-04-02T03:58:13.879Z,90.84
2023-04-02T04:00:57.277Z,89.01
2023-04-02T04:03:41.753Z,88.89
2023-04-02T04:06:24.615Z,87.83
2023-04-02T04:08:58.672Z,88.36
2023-04-02T04:11:30.384Z,88.34
2023-04-02T04:14:03.258Z,89.23
2023-04-02T04:16:35.936Z,89.47
2023-04-02T04:19:18.098Z,90.01
2023-04-02T04:21:46.187Z,89.54
2023-04-02T04:24:22.584Z,89.18
2023-04-02T04:26:53.437Z,89.51
2023-04-02T04:29:29.503Z,89.76
2023-04-02T04:31:58.751Z,89.98
2023-04-02T04:34:46.677Z,89.50
2023-04-02T04:37:29.098Z,89.64
2023-04-02T04:40:11.824Z,89.45
2023-04-02T04:42:42.659Z,89.80
2023-04-02T04:45:23.561Z,89.18
2023-04-02T04:47:57.354Z,89.16
2023-04-02T04:50:32.778Z,89.76
2023-04-02T04:53:13.724Z,88.68
2023-04-02T04:55:44.347Z,89.17
2023-04-02T04:58:18.704Z,89.28
2023-04-02T05:01:01.945Z,88.67
2023-04-02T05:03:31.323Z,89.36
2023-04-02T05:06:03.609Z,88.81
2023-04-02T05:08:36.181Z,89.09
2023-04-02T05:11:14.673Z,89.40
2023-04-02T05:13:54.181Z,89.09
2023-04-02T05:16:27.127Z,88.73
2023-04-02T05:19:03.734Z,89.03
2023-04-02T05:21:58.093Z,89.64
2023-04-02T05:24:42.892Z,88.80
2023-04-02T05:27:21.352Z,88.97
2023-04-02T05:29:54.742Z,89.34
2023-04-02T05:32:36.568Z,89.44
2023-04-02T05:35:06.582Z,88.82
2023-04-02T05:37:38.940Z,88.95
2023-04-02T05:40:14.612Z,88.95
2023-04-02T05:42:48.744Z,88.90
2023-04-02T05:45:28.590Z,88.90
2023-04-02T05:48:01.689Z,88.69
2023-04-02T05:50:40.302Z,88.50
2023-04-02T05:53:21.429Z,88.48
2023-04-02T05:55:59.956Z,88.28
2023-04-02T05:58:39.062Z,87.89
2023-04-02T06:01:25.317Z,86.72
2023-04-02T06:04:00.915Z,86.72
2023-04-02T06:06:41.407Z,86.49
2023-04-02T06:09:27.663Z,86.06
2023-04-02T06:12:04.627Z,86.21
2023-04-02T06:14:32.737Z,85.84
2023-04-02T06:16:59.752Z,85.82
2023-04-02T06:19:32.788Z,85.39
2023-04-02T06:22:10.604Z,84.98
2023-04-02T06:24:41.091Z,85.24
2023-04-02T06:27:14.763Z,85.66
2023-04-02T06:29:45.566Z,84.85
2023-04-02T06:32:16.481Z,84.13
2023-04-02T06:34:44.824Z,84.83
2023-04-02T06:37:23.398Z,83.55
2023-04-02T06:39:56.394Z,83.99
2023-04-02T06:42:28.340Z,82.86
2023-04-02T06:45:22.163Z,80.68
2023-04-02T06:48:02.599Z,79.67
2023-04-02T06:50:59.357Z,80.32
2023-04-02T06:53:38.557Z,79.55
2023-04-02T06:56:36.286Z,79.85
2023-04-02T06:59:04.691Z,80.38
2023-04-02T07:01:37.214Z,78.57
2023-04-02T07:04:04.568Z,79.91
2023-04-02T07:06:36.809Z,78.58
2023-04-02T07:09:04.735Z,79.55
2023-04-02T07:11:32.713Z,78.92
2023-04-02T07:14:02.217Z,78.96
2023-04-02T07:16:31.716Z,77.87
2023-04-02T07:19:01.111Z,79.01
2023-04-02T07:21:31.041Z,78.89
2023-04-02T07:23:57.536Z,78.53
2023-04-02T07:26:27.321Z,77.99
2023-04-02T07:28:55.655Z,77.72
2023-04-02T07:31:25.731Z,77.83
2023-04-02T07:33:55.056Z,77.70
2023-04-02T07:36:23.219Z,78.08
2023-04-02T07:38:50.335Z,78.28
2023-04-02T07:41:18.139Z,78.32
2023-04-02T07:43:44.560Z,78.80
2023-04-02T07:46:13.992Z,78.51
2023-04-02T07:48:40.661Z,77.75
2023-04-02T07:51:15.940Z,78.03
2023-04-02T07:53:42.464Z,78.25
2023-04-02T07:56:13.287Z,78.10
2023-04-02T07:58:39.761Z,76.69
2023-04-02T08:01:16.571Z,76.43
2023-04-02T08:03:43.073Z,77.00
2023-04-02T08:06:09.544Z,77.79
2023-04-02T08:08:35.940Z,76.95
2023-04-02T08:11:02.340Z,75.71
2023-04-02T08:13:31.958Z,73.52
2023-04-02T08:15:59.495Z,74.33
2023-04-02T08:18:26.075Z,74.89
2023-04-02T08:20:53.381Z,72.47
2023-04-02T08:23:21.584Z,73.38
2023-04-02T08:25:48.657Z,73.01
2023-04-02T08:28:15.086Z,74.12
2023-04-02T08:30:41.761Z,72.09
2023-04-02T08:33:08.297Z,74.40
2023-04-02T08:35:35.195Z,74.63
2023-04-02T08:38:01.941Z,74.82
2023-04-02T08:40:35.743Z,74.92
2023-04-02T08:43:16.811Z,76.18
2023-04-02T08:46:04.295Z,74.84
2023-04-02T08:48:33.514Z,75.80
2023-04-02T08:51:01.745Z,75.27
2023-04-02T08:53:33.672Z,75.14
2023-04-02T08:56:08.523Z,74.36
2023-04-02T08:58:43.709Z,75.18
2023-04-02T09:01:34.871Z,73.88
2023-04-02T09:04:05.913Z,72.34
2023-04-02T09:06:33.406Z,72.91
2023-04-02T09:09:00.266Z,71.30
2023-04-02T09:11:58.984Z,70.74
2023-04-02T09:14:42.574Z,71.12
2023-04-02T09:17:19.167Z,69.15
2023-04-02T09:20:01.535Z,68.41
2023-04-02T09:22:31.682Z,65.45
2023-04-02T09:25:00.937Z,65.97
2023-04-02T09:27:33.389Z,66.85
2023-04-02T09:30:06.618Z,65.49
2023-04-02T09:32:38.891Z,65.37
2023-04-02T09:35:18.354Z,66.73
2023-04-02T09:38:09.809Z,65.86
2023-04-02T09:40:48.181Z,63.84
2023-04-02T09:43:17.933Z,65.26
2023-04-02T09:45:55.278Z,63.97
2023-04-02T09:48:37.776Z,62.26
2023-04-02T09:51:21.903Z,62.64
2023-04-02T09:54:10.535Z,62.20
2023-04-02T09:56:38.644Z,61.46
2023-04-02T09:59:12.308Z,61.93
2023-04-02T10:01:43.689Z,61.20
2023-04-02T10:04:44.427Z,60.77
2023-04-02T10:07:31.154Z,59.33
2023-04-02T10:10:03.695Z,56.98
2023-04-02T10:12:38.567Z,57.16
2023-04-02T10:15:07.191Z,59.07
2023-04-02T10:17:37.938Z,57.89
2023-04-02T10:20:22.211Z,59.87
2023-04-02T10:22:48.818Z,58.67
2023-04-02T10:25:21.128Z,59.00
2023-04-02T10:27:56.977Z,59.29
2023-04-02T10:30:30.524Z,59.08
2023-04-02T10:33:20.086Z,58.84
2023-04-02T10:36:00.292Z,57.35
2023-04-02T10:38:51.198Z,58.64
2023-04-02T10:41:27.917Z,55.33
2023-04-02T10:44:16.789Z,57.54
2023-04-02T10:46:56.488Z,56.79
2023-04-02T10:49:32.945Z,56.77
2023-04-02T10:52:27.519Z,56.51
2023-04-02T10:54:56.501Z,56.42
2023-04-02T10:57:37.945Z,55.91
2023-04-02T11:00:21.001Z,55.99
2023-04-02T11:02:54.535Z,56.71
2023-04-02T11:05:31.434Z,56.40
2023-04-02T11:08:11.762Z,56.93
2023-04-02T11:10:44.529Z,55.65
2023-04-02T11:13:22.779Z,56.38
2023-04-02T11:15:49.652Z,56.10
2023-04-02T11:18:23.489Z,56.70
2023-04-02T11:20:49.832Z,57.71
2023-04-02T11:23:20.923Z,57.47
2023-04-02T11:25:47.688Z,57.76
2023-04-02T11:28:29.456Z,58.54
2023-04-02T11:30:57.168Z,58.87
2023-04-02T11:33:45.604Z,57.53
2023-04-02T11:36:50.548Z,56.69
2023-04-02T11:39:55.065Z,57.05
2023-04-02T11:42:24.899Z,57.79
2023-04-02T11:44:52.470Z,56.10
2023-04-02T11:47:24.377Z,56.92
2023-04-02T11:50:04.100Z,55.37
2023-04-02T11:52:50.973Z,55.48
2023-04-02T11:56:06.837Z,54.99
2023-04-02T11:59:01.374Z,56.28
2023-04-02T12:01:54.128Z,53.63
2023-04-02T12:04:56.451Z,54.66
2023-04-02T12:07:35.062Z,54.10
2023-04-02T12:10:11.886Z,54.11
2023-04-02T12:12:39.361Z,54.63
2023-04-02T12:15:32.667Z,55.43
2023-04-02T12:18:25.707Z,55.00
2023-04-02T12:20:57.017Z,55.31
2023-04-02T12:23:32.309Z,55.19
2023-04-02T12:26:01.196Z,54.60
2023-04-02T12:28:29.884Z,54.47
2023-04-02T12:31:08.244Z,54.77
2023-04-02T12:33:37.607Z,54.38
2023-04-02T12:36:09.813Z,54.24
2023-04-02T12:38:44.760Z,54.66
2023-04-02T12:41:30.085Z,54.55
2023-04-02T12:44:04.826Z,54.23
2023-04-02T12:46:33.644Z,54.54
2023-04-02T12:49:08.955Z,54.11
2023-04-02T12:51:37.007Z,54.45
2023-04-02T12:54:04.335Z,53.39
2023-04-02T12:56:30.885Z,54.06
2023-04-02T12:58:58.849Z,53.37
2023-04-02T13:01:31.385Z,54.34
2023-04-02T13:04:09.223Z,53.29
2023-04-02T13:06:36.396Z,53.96
2023-04-02T13:09:06.542Z,53.42
2023-04-02T13:11:35.970Z,53.65
2023-04-02T13:14:05.756Z,54.42
2023-04-02T13:16:38.088Z,53.60
2023-04-02T13:19:28.012Z,53.32
2023-04-02T13:21:55.930Z,53.20
2023-04-02T13:24:25.045Z,53.21
2023-04-02T13:26:55.396Z,52.64
2023-04-02T13:29:34.570Z,52.74
2023-04-02T13:32:03.948Z,52.06
2023-04-02T13:34:30.838Z,52.40
2023-04-02T13:36:58.166Z,52.67
2023-04-02T13:39:25.317Z,53.06
2023-04-02T13:41:56.501Z,53.97
2023-04-02T13:44:31.451Z,53.80
2023-04-02T13:46:58.395Z,53.55
2023-04-02T13:49:26.293Z,52.75
2023-04-02T13:51:57.922Z,52.89
2023-04-02T13:54:45.652Z,52.75
2023-04-02T13:57:12.298Z,51.94
2023-04-02T13:59:38.783Z,52.61
2023-04-02T14:02:10.535Z,52.07
2023-04-02T14:04:44.797Z,52.53
2023-04-02T14:07:26.909Z,51.79
2023-04-02T14:10:24.523Z,51.18
2023-04-02T14:13:36.292Z,51.25
2023-04-02T14:16:24.146Z,52.67
2023-04-02T14:19:06.261Z,52.42
2023-04-02T14:22:01.201Z,52.86
2023-04-02T14:24:41.018Z,51.19
2023-04-02T14:27:31.620Z,51.76
2023-04-02T14:30:36.121Z,52.38
2023-04-02T14:33:17.938Z,51.71
2023-04-02T14:35:46.931Z,52.50
2023-04-02T14:38:21.392Z,52.29
2023-04-02T14:40:52.823Z,52.12
2023-04-02T14:43:26.070Z,51.51
2023-04-02T14:45:59.866Z,52.83
2023-04-02T14:48:48.873Z,52.61
2023-04-02T14:51:30.178Z,52.57
2023-04-02T14:54:04.168Z,54.36
2023-04-02T14:56:36.448Z,54.35
2023-04-02T14:59:19.666Z,54.09
2023-04-02T15:01:50.336Z,54.87
2023-04-02T15:04:30.929Z,54.38
2023-04-02T15:07:05.417Z,54.61
2023-04-02T15:09:37.176Z,54.85
2023-04-02T15:12:13.543Z,54.30
2023-04-02T15:14:47.561Z,55.64
2023-04-02T15:17:13.983Z,54.97
2023-04-02T15:19:40.383Z,54.53
2023-04-02T15:22:31.561Z,54.49
2023-04-02T15:25:15.386Z,55.57
2023-04-02T15:27:57.916Z,55.26
2023-04-02T15:30:35.520Z,56.27
2023-04-02T15:33:28.387Z,56.47
2023-04-02T15:36:32.659Z,56.96
2023-04-02T15:39:22.129Z,55.93
2023-04-02T15:42:19.892Z,55.81
2023-04-02T15:45:09.480Z,56.19
2023-04-02T15:48:16.789Z,56.48
2023-04-02T15:50:53.852Z,57.07
2023-04-02T15:53:38.868Z,56.54
2023-04-02T15:56:30.811Z,55.43
2023-04-02T15:59:22.159Z,56.43
2023-04-02T16:02:23.073Z,56.65
2023-04-02T16:05:03.752Z,55.94
2023-04-02T16:07:55.036Z,56.73
2023-04-02T16:10:41.040Z,56.00
2023-04-02T16:13:25.945Z,56.30
2023-04-02T16:16:14.435Z,56.31
2023-04-02T16:18:56.845Z,55.73
2023-04-02T16:21:28.953Z,55.66
2023-04-02T16:23:55.423Z,56.58
2023-04-02T16:26:46.738Z,57.33
2023-04-02T16:29:22.917Z,56.72
2023-04-02T16:32:02.921Z,56.24
2023-04-02T16:34:47.064Z,56.06
2023-04-02T16:37:58.169Z,55.83
2023-04-02T16:41:07.548Z,56.95
2023-04-02T16:43:55.240Z,57.04
2023-04-02T16:46:41.004Z,57.24
2023-04-02T16:49:30.276Z,57.19
2023-04-02T16:52:19.850Z,56.52
2023-04-02T16:55:05.621Z,57.78
2023-04-02T16:57:42.874Z,57.58
2023-04-02T17:00:38.917Z,56.82
2023-04-02T17:03:35.935Z,56.69
2023-04-02T17:06:14.657Z,56.98
2023-04-02T17:08:53.831Z,57.57
2023-04-02T17:11:29.038Z,57.00
2023-04-02T17:14:32.057Z,57.49
2023-04-02T17:17:03.032Z,57.29
2023-04-02T17:19:30.108Z,58.12
2023-04-02T17:22:00.932Z,58.26
2023-04-02T17:24:39.150Z,58.34
2023-04-02T17:27:20.394Z,58.37
2023-04-02T17:29:52.596Z,59.10
2023-04-02T17:32:30.157Z,58.81
2023-04-02T17:34:57.667Z,59.59
2023-04-02T17:37:48.196Z,60.14
2023-04-02T17:40:26.121Z,60.20
2023-04-02T17:43:05.567Z,60.08
2023-04-02T17:45:42.971Z,60.58
2023-04-02T17:48:30.314Z,60.76
2023-04-02T17:51:14.886Z,61.02
2023-04-02T17:54:01.150Z,60.81
2023-04-02T17:56:27.577Z,60.62
2023-04-02T17:59:12.482Z,61.51
2023-04-02T18:02:18.165Z,62.32
2023-04-02T18:05:11.671Z,62.27
2023-04-02T18:07:59.543Z,63.14
2023-04-02T18:10:45.230Z,63.45
2023-04-02T18:13:39.752Z,63.96
2023-04-02T18:16:25.029Z,64.45
2023-04-02T18:19:09.092Z,63.87
2023-04-02T18:21:46.318Z,64.46
2023-04-02T18:24:46.478Z,64.47
2023-04-02T18:27:34.558Z,64.88
2023-04-02T18:30:16.179Z,64.56
2023-04-02T18:33:02.477Z,65.03
2023-04-02T18:36:06.873Z,65.69
2023-04-02T18:39:10.608Z,65.76
2023-04-02T18:41:53.431Z,66.74
2023-04-02T18:44:30.086Z,66.82
2023-04-02T18:47:09.711Z,66.63
2023-04-02T18:49:44.819Z,66.75
2023-04-02T18:52:13.728Z,67.38
2023-04-02T18:54:46.955Z,67.54
2023-04-02T18:57:22.833Z,67.19
2023-04-02T18:59:57.401Z,66.96
2023-04-02T19:02:44.096Z,67.18
2023-04-02T19:05:17.441Z,67.52
2023-04-02T19:07:44.904Z,67.95
2023-04-02T19:10:27.127Z,67.82
2023-04-02T19:12:53.537Z,68.31
2023-04-02T19:15:21.324Z,67.95
2023-04-02T19:18:15.333Z,68.36
2023-04-02T19:21:02.093Z,67.73
2023-04-02T19:23:58.076Z,68.60
2023-04-02T19:26:38.515Z,68.50
2023-04-02T19:29:24.620Z,68.59
2023-04-02T19:32:02.286Z,68.23
2023-04-02T19:35:08.334Z,68.88
2023-04-02T19:37:49.960Z,68.83
2023-04-02T19:40:36.746Z,69.67
2023-04-02T19:43:04.089Z,70.13
2023-04-02T19:45:35.757Z,70.64
2023-04-02T19:48:10.801Z,70.93
2023-04-02T19:50:37.306Z,70.62
2023-04-02T19:53:03.742Z,70.30
2023-04-02T19:55:30.461Z,71.01
2023-04-02T19:58:08.418Z,70.96
2023-04-02T20:00:43.330Z,71.11
2023-04-02T20:03:09.744Z,71.20
2023-04-02T20:05:36.273Z,71.23
2023-04-02T20:08:02.772Z,72.10
2023-04-02T20:10:29.183Z,72.16
2023-04-02T20:12:55.570Z,72.59
2023-04-02T20:15:21.977Z,72.42
2023-04-02T20:17:48.477Z,73.29
2023-04-02T20:20:16.261Z,72.82
2023-04-02T20:22:42.693Z,72.69
2023-04-02T20:25:09.176Z,72.47
2023-04-02T20:27:35.698Z,72.32
2023-04-02T20:30:02.793Z,72.62
2023-04-02T20:32:30.010Z,72.60
2023-04-02T20:34:56.505Z,72.63
2023-04-02T20:37:22.968Z,72.22
2023-04-02T20:39:49.504Z,72.50
2023-04-02T20:42:15.985Z,73.09
2023-04-02T20:44:42.421Z,73.59
2023-04-02T20:47:08.905Z,73.83
2023-04-02T20:49:35.313Z,73.46
2023-04-02T20:52:01.771Z,73.60
2023-04-02T20:54:28.180Z,73.94
2023-04-02T20:56:54.599Z,73.90
2023-04-02T20:59:21.005Z,73.70
2023-04-02T21:01:47.443Z,73.87
2023-04-02T21:04:14.170Z,74.18
2023-04-02T21:06:41.233Z,74.16
2023-04-02T21:09:14.451Z,74.79
2023-04-02T21:11:41.036Z,74.41
2023-04-02T21:14:07.628Z,74.18
2023-04-02T21:16:34.560Z,73.83
2023-04-02T21:19:05.994Z,74.40
2023-04-02T21:21:33.404Z,74.14
2023-04-02T21:24:01.763Z,74.58
2023-04-02T21:26:31.895Z,74.39
2023-04-02T21:28:59.814Z,74.71
2023-04-02T21:31:29.007Z,74.66
2023-04-02T21:33:57.316Z,74.42
2023-04-02T21:36:26.823Z,74.30
2023-04-02T21:39:34.199Z,74.70
2023-04-02T21:42:00.740Z,74.66
2023-04-02T21:44:27.217Z,74.54
2023-04-02T21:46:54.266Z,74.96
2023-04-02T21:49:26.200Z,74.44
2023-04-02T21:51:52.626Z,74.76
2023-04-02T21:54:19.567Z,74.94
2023-04-02T21:56:46.798Z,75.62
2023-04-02T21:59:15.666Z,75.18
2023-04-02T22:01:44.633Z,75.06
2023-04-02T22:04:16.532Z,74.78
2023-04-02T22:06:44.439Z,75.63
2023-04-02T22:09:17.617Z,76.17
2023-04-02T22:11:51.189Z,76.19
2023-04-02T22:14:18.866Z,75.96
2023-04-02T22:16:45.355Z,75.89
2023-04-02T22:19:14.507Z,76.53
2023-04-02T22:21:41.696Z,76.05
2023-04-02T22:24:10.927Z,76.67
2023-04-02T22:26:37.968Z,76.67
2023-04-02T22:29:04.994Z,76.52
2023-04-02T22:31:35.921Z,76.83
2023-04-02T22:34:04.174Z,77.26
2023-04-02T22:36:30.921Z,76.99
2023-04-02T22:38:58.967Z,77.08
2023-04-02T22:41:27.931Z,76.83
2023-04-02T22:43:58.570Z,77.21
2023-04-02T22:46:26.513Z,76.82
2023-04-02T22:48:53.221Z,77.15
2023-04-02T22:51:21.691Z,77.75
2023-04-02T22:53:48.917Z,77.58
2023-04-02T22:56:18.096Z,77.72
2023-04-02T22:58:44.742Z,77.67
2023-04-02T23:01:21.414Z,76.97
2023-04-02T23:03:48.542Z,77.45
2023-04-02T23:06:16.963Z,77.80
2023-04-02T23:08:43.894Z,78.03
2023-04-02T23:11:22.756Z,78.25
2023-04-02T23:13:50.831Z,77.31
2023-04-02T23:16:18.133Z,77.69
2023-04-02T23:18:47.911Z,78.03
2023-04-02T23:21:14.701Z,78.26
2023-04-02T23:23:41.111Z,78.43
2023-04-02T23:26:16.164Z,78.59
2023-04-02T23:28:43.165Z,78.37
2023-04-02T23:31:12.990Z,78.46
2023-04-02T23:33:39.427Z,78.85
2023-04-02T23:36:10.320Z,78.18
2023-04-02T23:38:36.844Z,78.08
2023-04-02T23:41:03.354Z,78.65
2023-04-02T23:43:29.777Z,78.15
2023-04-02T23:45:56.186Z,78.08
2023-04-02T23:48:22.629Z,77.75
2023-04-02T23:50:49.085Z,77.68
2023-04-02T23:53:16.418Z,77.59
2023-04-02T23:55:42.796Z,78.14
2023-04-02T23:58:09.220Z,77.32
